Time;durP1;ratioP1;P1;durP2;ratioP2;P2;SDS_P1;SDS_P2;PMS_P1;PMS_P2;Temp;Humidity;BMP_temperature;BMP_pressure;BME280_temperature;BME280_humidity;BME280_pressure;Samples;Min_cycle;Max_cycle;Signal;HPM_P1;HPM_P2
2022/11/08 00:01:53;;;;;;;8.18;1.95;;;12.90;99.90;;;13.01;100.00;100660.50;5126475;29;20126;-74
2022/11/08 00:04:26;;;;;;;3.88;1.67;;;12.90;99.90;;;13.02;100.00;100667.50;5125904;28;20047;-73
2022/11/08 00:15:32;;;;;;;9.05;2.67;;;13.00;99.90;;;13.08;100.00;100665.03;5126099;29;20455;-75
2022/11/08 00:18:04;;;;;;;7.43;2.40;;;13.00;99.90;;;13.08;100.00;100670.25;5125831;28;20039;-75
2022/11/08 00:20:36;;;;;;;5.88;2.13;;;13.00;99.90;;;13.11;100.00;100661.63;5125677;28;20051;-75
2022/11/08 00:23:09;;;;;;;5.25;2.38;;;13.10;99.90;;;13.16;100.00;100658.22;5124827;28;20051;-74
2022/11/08 00:25:42;;;;;;;6.03;2.28;;;13.10;99.90;;;13.18;100.00;100650.44;5125642;28;20093;-75
2022/11/08 00:28:14;;;;;;;3.95;1.83;;;13.10;99.90;;;13.17;100.00;100644.31;5125666;28;20043;-75
2022/11/08 00:30:47;;;;;;;7.60;2.22;;;13.10;99.90;;;13.16;100.00;100658.22;5124441;29;20146;-75
2022/11/08 00:33:19;;;;;;;5.88;1.85;;;13.10;99.90;;;13.17;100.00;100651.25;5125779;28;20045;-75
2022/11/08 00:35:51;;;;;;;4.53;1.75;;;13.10;99.90;;;13.16;100.00;100654.72;5125873;28;20083;-74
2022/11/08 00:38:24;;;;;;;5.13;2.15;;;13.10;99.90;;;13.17;100.00;100657.41;5124052;28;20135;-75
2022/11/08 00:40:59;;;;;;;5.63;2.20;;;13.10;99.90;;;13.13;100.00;100645.09;5125802;28;20047;-75
2022/11/08 00:43:31;;;;;;;3.03;1.92;;;13.10;99.90;;;13.14;100.00;100659.06;5125444;28;20044;-75
2022/11/08 00:46:04;;;;;;;4.10;2.08;;;13.10;99.90;;;13.17;100.00;100657.41;5125379;28;20043;-75
2022/11/08 00:48:36;;;;;;;5.22;2.03;;;13.10;99.90;;;13.18;100.00;100661.78;5124760;28;20050;-73
2022/11/08 00:51:12;;;;;;;3.78;1.88;;;13.10;99.90;;;13.18;100.00;100661.78;5125652;28;20058;-74
2022/11/08 00:53:44;;;;;;;5.70;1.90;;;13.10;99.90;;;13.18;100.00;100655.66;5123963;29;20081;-74
2022/11/08 00:56:18;;;;;;;5.50;1.75;;;13.10;99.90;;;13.18;100.00;100656.56;5125142;28;20496;-75
2022/11/08 00:58:50;;;;;;;4.15;2.03;;;13.10;99.90;;;13.19;100.00;100663.53;5123598;28;20058;-77
2022/11/08 01:01:23;;;;;;;3.65;1.60;;;13.10;99.90;;;13.20;100.00;100649.63;5124187;29;20043;-75
2022/11/08 01:03:56;;;;;;;4.10;1.70;;;13.10;99.90;;;13.22;100.00;100641.81;5123769;29;20054;-76
2022/11/08 01:06:28;;;;;;;6.57;2.00;;;13.10;99.90;;;13.22;100.00;100640.06;5124970;28;20124;-75
2022/11/08 01:09:01;;;;;;;5.82;2.80;;;13.20;99.90;;;13.25;100.00;100648.00;5123715;29;20065;-76
2022/11/08 01:11:35;;;;;;;4.07;1.65;;;13.10;99.90;;;13.24;100.00;100641.00;5125411;28;20451;-75
2022/11/08 01:14:07;;;;;;;5.07;2.03;;;13.20;99.90;;;13.26;100.00;100638.41;5123546;29;20050;-73
2022/11/08 01:16:40;;;;;;;6.80;1.90;;;13.20;99.90;;;13.27;100.00;100641.06;5124971;28;20049;-74
2022/11/08 01:19:12;;;;;;;7.65;2.58;;;13.20;99.90;;;13.27;100.00;100641.06;5123096;28;20055;-77
2022/11/08 01:21:44;;;;;;;5.45;1.92;;;13.20;99.90;;;13.26;100.00;100634.06;5123548;28;20062;-76
2022/11/08 01:24:17;;;;;;;6.88;1.88;;;13.20;99.90;;;13.25;100.00;100627.06;5124769;28;20061;-77
2022/11/08 01:26:52;;;;;;;4.47;1.85;;;13.20;99.90;;;13.22;100.00;100621.75;5124861;28;20090;-75
2022/11/08 01:29:24;;;;;;;4.43;1.63;;;13.20;99.90;;;13.25;100.00;100627.06;5123083;29;20109;-75
2022/11/08 01:31:56;;;;;;;6.32;1.75;;;13.20;99.90;;;13.25;100.00;100631.44;5123685;29;20059;-75
2022/11/08 01:34:28;;;;;;;3.55;1.58;;;13.20;99.90;;;13.27;100.00;100627.97;5122995;29;20043;-75
2022/11/08 01:37:00;;;;;;;2.85;1.42;;;13.20;99.90;;;13.27;100.00;100625.34;5123271;29;20055;-75
2022/11/08 01:39:32;;;;;;;6.32;1.92;;;13.10;99.90;;;13.29;100.00;100633.22;5124224;28;20054;-75
2022/11/08 01:42:06;;;;;;;3.63;1.90;;;13.20;99.90;;;13.30;100.00;100620.22;5124293;28;20512;-75
2022/11/08 01:45:01;;;;;;;5.88;1.92;;;13.20;99.90;;;13.30;100.00;100620.22;5122811;29;20047;-75
2022/11/08 01:47:33;;;;;;;1.98;1.27;;;13.20;99.90;;;13.29;100.00;100613.19;5124803;28;20121;-75
2022/11/08 01:50:10;;;;;;;2.55;1.30;;;13.20;99.90;;;13.29;100.00;100613.19;5123340;28;20043;-75
2022/11/08 01:52:47;;;;;;;2.17;1.48;;;13.20;99.90;;;13.30;100.00;100617.59;5124497;28;20161;-76
2022/11/08 01:55:23;;;;;;;3.20;1.40;;;13.20;99.90;;;13.28;100.00;100616.66;5122503;28;20048;-75
2022/11/08 01:58:02;;;;;;;19.17;2.05;;;13.20;99.90;;;13.25;100.00;100608.75;5123877;28;20043;-71
2022/11/08 02:00:37;;;;;;;4.60;1.50;;;13.20;99.90;;;13.24;100.00;100607.00;5124248;28;20051;-71
2022/11/08 02:03:12;;;;;;;;;;;13.20;99.90;;;13.21;100.00;100601.66;5124393;28;20047;-72
2022/11/08 02:05:45;;;;;;;2.75;1.40;;;13.10;99.90;;;13.17;100.00;100612.91;5123782;29;20318;-74
2022/11/08 02:08:22;;;;;;;2.83;1.20;;;13.10;99.90;;;13.15;100.00;100614.59;5123961;28;20079;-72
2022/11/08 02:10:55;;;;;;;6.65;1.52;;;13.10;99.90;;;13.09;100.00;100609.22;5124137;28;20052;-75
2022/11/08 02:13:30;;;;;;;2.30;1.40;;;13.00;99.90;;;13.04;100.00;100595.19;5124107;28;20055;-72
2022/11/08 02:16:06;;;;;;;2.58;1.40;;;13.00;99.90;;;12.98;100.00;100600.28;5123839;28;20114;-71
2022/11/08 02:18:38;;;;;;;3.78;1.02;;;12.90;99.90;;;12.92;100.00;100601.03;5122605;29;20051;-72
2022/11/08 02:21:19;;;;;;;3.10;1.38;;;12.90;99.90;;;12.87;100.00;100610.50;5124220;28;20043;-72
2022/11/08 02:23:55;;;;;;;3.70;1.23;;;12.80;99.90;;;12.84;100.00;100617.38;5123939;28;20044;-71
2022/11/08 02:26:31;;;;;;;4.45;1.33;;;12.80;99.90;;;12.80;100.00;100605.97;5123816;28;20556;-72
2022/11/08 02:29:32;;;;;;;4.00;1.65;;;12.70;99.90;;;12.75;100.00;100603.25;5123587;28;20081;-73
2022/11/08 02:32:05;;;;;;;;;;;12.70;99.90;;;12.72;100.00;100595.34;5123001;28;20411;-73
2022/11/08 02:34:42;;;;;;;3.10;1.30;;;12.70;99.90;;;12.70;100.00;100594.41;5123516;28;19969;-71
2022/11/08 02:37:18;;;;;;;1.23;1.00;;;12.60;99.90;;;12.66;100.00;100589.97;5122688;29;20078;-73
2022/11/08 02:39:52;;;;;;;2.75;1.20;;;12.60;99.90;;;12.64;100.00;100582.91;5122326;29;20062;-72
2022/11/08 02:42:24;;;;;;;3.47;1.30;;;12.60;99.90;;;12.60;100.00;100586.34;5123553;28;20047;-71
2022/11/08 02:44:56;;;;;;;3.88;1.30;;;12.60;99.90;;;12.58;100.00;100588.00;5122422;29;20047;-74
2022/11/08 02:47:28;;;;;;;3.50;1.83;;;12.50;99.90;;;12.57;100.00;100579.28;5123417;29;20531;-73
2022/11/08 02:50:00;;;;;;;3.88;1.27;;;12.50;99.90;;;12.56;100.00;100574.91;5123446;29;20334;-71
2022/11/08 02:52:32;;;;;;;4.13;1.30;;;12.50;99.90;;;12.55;100.00;100572.25;5123409;28;20055;-72
2022/11/08 02:55:07;;;;;;;4.93;1.50;;;12.50;99.90;;;12.54;100.00;100570.50;5123543;28;20116;-72
2022/11/08 02:57:39;;;;;;;5.63;1.50;;;12.50;99.90;;;12.50;100.00;100559.94;5123093;28;20058;-73
2022/11/08 03:00:13;;;;;;;4.00;1.17;;;12.50;99.90;;;12.49;100.00;100552.09;5125501;28;20043;-72
2022/11/08 03:02:50;;;;;;;5.57;1.40;;;12.50;99.90;;;12.47;100.00;100554.66;5127650;28;20126;-73
2022/11/08 03:05:23;;;;;;;1.67;0.93;;;12.50;99.90;;;12.45;100.00;100556.38;5126247;29;20043;-73
2022/11/08 03:07:56;;;;;;;3.40;1.02;;;12.40;99.90;;;12.42;100.00;100550.19;5127034;28;20035;-73
2022/11/08 03:10:30;;;;;;;4.47;1.38;;;12.40;99.90;;;12.40;100.00;100541.44;5127596;28;20053;-73
2022/11/08 03:13:05;;;;;;;2.63;1.20;;;12.40;99.90;;;12.36;100.00;100535.22;5127437;28;20134;-72
2022/11/08 03:15:37;;;;;;;5.10;1.45;;;12.40;99.90;;;12.36;100.00;100526.50;5127701;28;20456;-72
2022/11/08 03:18:09;;;;;;;2.35;1.02;;;12.40;99.90;;;12.32;100.00;100536.00;5127084;28;20070;-72
2022/11/08 03:20:41;;;;;;;3.65;1.60;;;12.40;99.90;;;12.32;100.00;100532.50;5126025;29;20047;-72
2022/11/08 03:23:13;;;;;;;3.65;1.50;;;12.30;99.90;;;12.30;100.00;100523.75;5127480;28;20047;-72
2022/11/08 03:25:46;;;;;;;1.85;1.20;;;12.30;99.90;;;12.28;100.00;100522.84;5127275;28;20047;-70
2022/11/08 03:28:19;;;;;;;2.88;1.20;;;12.30;99.90;;;12.26;100.00;100511.44;5126950;28;20047;-72
2022/11/08 03:30:52;;;;;;;4.25;1.40;;;12.30;99.90;;;12.20;100.00;100497.41;5125831;29;20065;-71
2022/11/08 03:33:25;;;;;;;5.72;2.35;;;12.20;99.90;;;12.18;100.00;100499.09;5125931;28;20110;-72
2022/11/08 03:35:57;;;;;;;3.67;1.63;;;12.20;99.90;;;12.12;100.00;100485.00;5135204;28;20039;-72
2022/11/08 03:38:29;;;;;;;7.68;1.88;;;12.20;99.90;;;12.07;100.00;100482.28;5154383;28;20049;-73
2022/11/08 03:41:02;;;;;;;3.17;1.45;;;12.10;99.90;;;12.04;100.00;100478.72;5143675;28;20415;-72
2022/11/08 03:43:34;;;;;;;3.22;1.60;;;12.10;99.90;;;12.03;100.00;100472.59;5144474;28;20137;-71
2022/11/08 03:46:06;;;;;;;3.60;1.55;;;12.10;99.90;;;12.02;100.00;100469.97;5144543;28;20049;-71
2022/11/08 03:48:39;;;;;;;5.25;1.80;;;12.10;99.90;;;11.97;100.00;100464.63;5144565;28;20042;-72
2022/11/08 03:51:11;;;;;;;5.10;1.42;;;12.10;99.90;;;11.95;100.00;100468.94;5144508;28;20053;-72
2022/11/08 03:53:43;;;;;;;3.67;1.75;;;12.00;99.90;;;11.91;100.00;100462.75;5143772;28;20061;-71
2022/11/08 03:56:16;;;;;;;6.60;1.65;;;12.00;99.90;;;11.92;100.00;100464.50;5147168;28;20129;-71
2022/11/08 03:58:48;;;;;;;4.00;2.10;;;12.00;99.90;;;11.94;100.00;100469.78;5147045;28;20050;-72
2022/11/08 04:01:20;;;;;;;6.85;2.17;;;12.00;99.90;;;11.92;100.00;100468.84;5147287;28;20046;-71
2022/11/08 04:03:52;;;;;;;4.53;1.85;;;12.00;99.90;;;11.91;100.00;100467.09;5147408;28;20047;-71
2022/11/08 04:06:25;;;;;;;5.40;1.80;;;12.00;99.90;;;11.89;100.00;100458.34;5147015;28;20046;-71
2022/11/08 04:08:59;;;;;;;5.10;1.80;;;12.00;99.90;;;11.89;100.00;100468.78;5146848;28;20556;-71
2022/11/08 04:17:11;;;;;;;3.55;1.75;;;11.90;99.90;;;11.76;100.00;100446.69;5146946;28;20524;-71
2022/11/08 04:22:33;;;;;;;3.08;1.52;;;11.80;99.90;;;11.71;100.00;100439.56;5145555;28;20065;-72
2022/11/08 04:25:06;;;;;;;4.10;2.10;;;11.80;99.90;;;11.66;100.00;100440.31;5146769;28;20038;-72
2022/11/08 04:27:40;;;;;;;3.67;1.90;;;11.80;99.90;;;11.65;100.00;100449.00;5146865;28;20055;-72
2022/11/08 04:30:13;;;;;;;3.72;1.80;;;11.70;99.90;;;11.62;100.00;100455.91;5145387;28;20411;-71
2022/11/08 04:32:45;;;;;;;4.93;1.60;;;11.70;99.90;;;11.61;100.00;100465.47;5145229;28;20141;-72
2022/11/08 04:35:17;;;;;;;2.63;1.70;;;11.70;99.90;;;11.61;100.00;100457.63;5147578;28;20047;-70
2022/11/08 04:37:49;;;;;;;5.15;2.00;;;11.70;99.90;;;11.60;100.00;100452.34;5145416;28;20043;-71
2022/11/08 04:40:22;;;;;;;3.40;1.67;;;11.70;99.90;;;11.57;100.00;100445.34;5146712;28;20046;-71
2022/11/08 04:42:55;;;;;;;3.05;1.90;;;11.60;99.90;;;11.56;100.00;100433.13;5146478;28;20448;-71
2022/11/08 04:45:27;;;;;;;4.78;1.88;;;11.60;99.90;;;11.54;100.00;100433.91;5144986;28;20415;-72
2022/11/08 04:47:59;;;;;;;4.18;1.83;;;11.60;99.90;;;11.54;100.00;100439.13;5145936;28;20125;-71
2022/11/08 04:50:31;;;;;;;4.85;1.85;;;11.60;99.90;;;11.53;100.00;100437.38;5145294;28;20053;-71
2022/11/08 04:53:04;;;;;;;5.65;1.67;;;11.60;99.90;;;11.49;100.00;100440.78;5146263;28;20056;-71
2022/11/08 04:55:36;;;;;;;4.07;1.85;;;11.60;99.90;;;11.44;100.00;100443.25;5206812;23;20047;-73
2022/11/08 04:58:10;;;;;;;3.13;1.58;;;11.60;99.90;;;11.44;100.00;100426.72;5142403;28;20047;-75
2022/11/08 05:00:42;;;;;;;4.18;1.70;;;11.60;99.90;;;11.41;100.00;100415.38;5145045;28;20050;-72
2022/11/08 05:03:14;;;;;;;4.38;1.80;;;11.50;99.90;;;11.41;100.00;100411.88;5145661;28;20047;-73
2022/11/08 05:05:46;;;;;;;3.80;2.17;;;11.50;99.90;;;11.38;100.00;100399.63;5144782;28;20121;-74
2022/11/08 05:08:19;;;;;;;4.32;1.70;;;11.50;99.90;;;11.38;100.00;100396.13;5144716;28;20061;-73
2022/11/08 05:10:52;;;;;;;5.78;1.95;;;11.50;99.90;;;11.34;100.00;100399.50;5148551;28;20037;-73
2022/11/08 05:13:27;;;;;;;4.03;2.00;;;11.50;99.90;;;11.30;100.00;100398.53;5164839;28;20052;-73
2022/11/08 05:16:00;;;;;;;7.60;2.33;;;11.40;99.90;;;11.28;100.00;100392.41;5165131;28;20043;-73
2022/11/08 05:18:33;;;;;;;4.05;2.47;;;11.40;99.90;;;11.28;100.00;100388.91;5164833;28;20053;-73
2022/11/08 05:23:57;;;;;;;6.88;3.05;;;11.40;99.90;;;11.25;100.00;100376.66;5163824;28;20052;-73
2022/11/08 05:26:31;;;;;;;6.80;2.35;;;11.40;99.90;;;11.24;100.00;100381.84;5165009;28;20050;-73
2022/11/08 05:29:05;;;;;;;4.10;2.10;;;11.30;99.90;;;11.23;100.00;100380.97;5164847;28;20530;-73
2022/11/08 05:31:37;;;;;;;7.78;3.75;;;11.30;99.90;;;11.23;100.00;100380.09;5165431;28;20038;-74
2022/11/08 05:34:09;;;;;;;8.13;2.00;;;11.30;99.90;;;11.21;100.00;100376.53;5165808;28;20050;-72
2022/11/08 05:36:41;;;;;;;6.03;2.47;;;11.30;99.90;;;11.17;100.00;100354.72;5165222;28;20415;-73
2022/11/08 05:39:13;;;;;;;5.78;3.03;;;11.30;99.90;;;11.18;100.00;100363.44;5164674;28;20415;-74
2022/11/08 05:41:45;;;;;;;6.60;2.80;;;11.30;99.90;;;11.22;100.00;100373.13;5164895;28;20100;-73
2022/11/08 05:44:19;;;;;;;5.05;3.08;;;11.30;99.90;;;11.20;100.00;100374.78;5163205;28;20046;-73
2022/11/08 05:46:51;;;;;;;7.40;3.38;;;11.30;99.90;;;11.19;100.00;100373.91;5165091;28;20038;-73
2022/11/08 05:49:23;;;;;;;5.53;2.47;;;11.30;99.90;;;11.18;100.00;100371.25;5164778;28;20060;-74
2022/11/08 05:51:55;;;;;;;3.63;2.17;;;11.20;99.90;;;11.18;100.00;100377.34;5163416;28;20050;-75
2022/11/08 05:54:27;;;;;;;6.63;2.50;;;11.30;99.90;;;11.16;100.00;100359.91;5164548;28;20057;-74
2022/11/08 05:57:00;;;;;;;6.55;3.47;;;11.30;99.90;;;11.10;100.00;100348.47;5163087;28;20046;-74
2022/11/08 05:59:33;;;;;;;3.42;1.90;;;11.20;99.90;;;11.04;100.00;100335.28;5164278;28;20046;-74
2022/11/08 06:02:05;;;;;;;9.35;2.65;;;11.20;99.90;;;10.99;100.00;100331.66;5164312;28;20049;-73
2022/11/08 06:04:37;;;;;;;5.20;1.98;;;11.20;99.90;;;10.94;100.00;100325.44;5164440;28;20045;-74
2022/11/08 06:07:09;;;;;;;3.53;2.00;;;11.10;99.90;;;10.92;100.00;100314.09;5164360;28;20049;-72
2022/11/08 06:09:41;;;;;;;8.45;2.30;;;11.10;99.90;;;10.95;100.00;100311.53;5164411;28;20129;-73
2022/11/08 06:12:13;;;;;;;5.53;2.10;;;11.10;99.90;;;10.97;100.00;100299.44;5164473;28;20045;-73
2022/11/08 06:14:47;;;;;;;3.90;1.88;;;11.10;99.90;;;10.96;100.00;100318.56;5163104;28;20566;-73
2022/11/08 06:17:19;;;;;;;5.60;2.22;;;11.10;99.90;;;10.97;100.00;100309.88;5164590;28;20048;-74
2022/11/08 06:19:51;;;;;;;5.28;2.22;;;11.10;99.90;;;10.98;100.00;100322.06;5163639;28;20057;-72
2022/11/08 06:22:23;;;;;;;4.88;2.22;;;11.10;99.90;;;10.98;100.00;100314.25;5163350;28;20105;-74
2022/11/08 06:24:55;;;;;;;5.25;1.90;;;11.10;99.90;;;10.98;100.00;100311.63;5163405;28;20043;-73
2022/11/08 06:27:28;;;;;;;6.38;2.08;;;11.10;99.90;;;11.00;100.00;100320.38;5164329;28;20435;-74
2022/11/08 06:30:01;;;;;;;4.53;2.00;;;11.10;99.90;;;11.00;100.00;100320.38;5162667;28;20526;-73
2022/11/08 06:32:33;;;;;;;3.78;2.00;;;11.10;99.90;;;11.07;100.00;100308.38;5164458;28;20084;-73
2022/11/08 06:35:07;;;;;;;6.97;1.92;;;11.20;99.90;;;11.02;100.00;100315.19;5164392;28;20407;-73
2022/11/08 06:37:39;;;;;;;3.90;1.80;;;11.20;99.90;;;11.04;100.00;100323.97;5163141;28;20054;-73
2022/11/08 06:40:12;;;;;;;4.40;1.90;;;11.20;99.90;;;11.10;100.00;100327.59;5164651;28;20407;-73
2022/11/08 06:42:44;;;;;;;4.70;1.70;;;11.20;99.90;;;11.09;100.00;100323.22;5164098;28;20038;-72
2022/11/08 06:45:17;;;;;;;5.00;1.60;;;11.20;99.90;;;11.08;100.00;100324.09;5164353;28;20129;-73
2022/11/08 06:47:49;;;;;;;5.82;1.73;;;11.20;99.90;;;11.10;100.00;100325.00;5164153;28;20054;-73
2022/11/08 06:50:21;;;;;;;3.40;1.80;;;11.20;99.90;;;11.11;100.00;100336.31;5164215;28;20125;-74
2022/11/08 06:52:56;;;;;;;2.15;1.60;;;11.20;99.90;;;11.22;100.00;100336.59;5163899;28;20053;-73
2022/11/08 06:55:29;;;;;;;2.42;1.45;;;11.30;99.90;;;11.26;100.00;100338.41;5164078;28;20047;-73
2022/11/08 06:58:01;;;;;;;5.13;1.60;;;11.30;99.90;;;11.27;100.00;100340.16;5163474;28;20077;-73
2022/11/08 07:00:35;;;;;;;3.72;1.60;;;11.30;99.90;;;11.29;100.00;100338.50;5164078;28;20042;-73
2022/11/08 07:03:07;;;;;;;4.75;1.50;;;11.30;99.90;;;11.29;100.00;100348.94;5164012;28;20590;-72
2022/11/08 07:05:39;;;;;;;2.65;1.40;;;11.40;99.90;;;11.31;100.00;100347.25;5163172;28;20045;-59
2022/11/08 07:08:11;;;;;;;4.25;1.60;;;11.40;99.90;;;11.34;100.00;100352.53;5163149;28;20046;-60
2022/11/08 07:10:43;;;;;;;5.35;1.88;;;11.40;99.90;;;11.38;100.00;100341.31;5163272;28;20062;-59
2022/11/08 07:13:15;;;;;;;2.78;1.45;;;11.40;99.90;;;11.44;100.00;100343.19;5163282;28;20046;-59
2022/11/08 07:15:49;;;;;;;3.60;1.90;;;11.50;99.90;;;11.45;100.00;100351.06;5157179;28;20520;-58
2022/11/08 07:18:21;;;;;;;3.05;1.50;;;11.50;99.90;;;11.48;100.00;100335.50;5151362;28;20050;-59
2022/11/08 07:20:53;;;;;;;4.40;1.50;;;11.50;99.90;;;11.48;100.00;100332.00;5155999;28;20496;-58
2022/11/08 07:23:25;;;;;;;3.85;1.60;;;11.60;99.90;;;11.53;100.00;100341.69;5159491;28;20046;-57
2022/11/08 07:26:02;;;;;;;5.45;2.00;;;11.60;99.90;;;11.57;100.00;100333.09;5162980;28;20047;-54
2022/11/08 07:28:34;;;;;;;4.07;1.52;;;11.60;99.90;;;11.67;100.00;100342.91;5163602;28;20081;-57
2022/11/08 07:31:09;;;;;;;2.75;2.05;;;11.70;99.90;;;11.75;100.00;100337.84;5162509;28;20053;-59
2022/11/08 07:33:41;;;;;;;7.40;2.03;;;11.70;99.90;;;11.82;100.00;100341.53;5157118;28;20042;-58
2022/11/08 07:36:13;;;;;;;2.38;1.33;;;11.80;99.90;;;11.89;100.00;100343.41;5146433;28;20043;-56
2022/11/08 07:38:45;;;;;;;4.43;2.25;;;11.80;99.90;;;11.93;100.00;100343.53;5162825;28;20042;-56
2022/11/08 07:41:17;;;;;;;2.88;1.83;;;11.90;99.90;;;11.93;100.00;100350.47;5157683;28;20054;-57
2022/11/08 07:43:49;;;;;;;4.53;1.75;;;11.90;99.90;;;12.00;100.00;100351.47;5155588;28;20275;-57
2022/11/08 07:46:23;;;;;;;4.25;1.80;;;12.00;99.90;;;12.05;100.00;100365.53;5140115;28;20030;-56
2022/11/08 07:48:55;;;;;;;2.60;1.33;;;12.00;99.90;;;12.08;100.00;100371.72;5166113;28;20050;-57
2022/11/08 07:51:27;;;;;;;5.90;3.33;;;12.00;99.90;;;12.08;100.00;100376.06;5163346;28;20415;-57
2022/11/08 07:53:59;;;;;;;4.10;2.30;;;12.10;99.90;;;12.14;100.00;100377.06;5147836;28;20539;-58
2022/11/08 07:56:31;;;;;;;6.13;1.92;;;12.10;99.90;;;12.12;100.00;100368.28;5152711;28;20042;-58
2022/11/08 07:59:04;;;;;;;2.38;1.65;;;12.10;99.90;;;12.11;100.00;100374.38;5167100;28;20042;-57
2022/11/08 08:01:37;;;;;;;4.80;1.40;;;12.10;99.90;;;12.15;100.00;100376.22;5146805;28;20047;-58
2022/11/08 08:04:11;;;;;;;4.25;1.60;;;12.10;99.90;;;12.17;100.00;100366.66;5143418;28;20053;-55
2022/11/08 08:06:43;;;;;;;5.60;1.60;;;12.20;99.90;;;12.18;100.00;100357.09;5157784;28;20042;-54
2022/11/08 08:09:15;;;;;;;3.17;1.90;;;12.20;99.90;;;12.21;100.00;100359.81;5166888;28;20144;-54
2022/11/08 08:11:47;;;;;;;5.00;1.80;;;12.20;99.90;;;12.26;100.00;100365.09;5151210;28;20050;-57
2022/11/08 08:14:19;;;;;;;6.47;2.10;;;12.20;99.90;;;12.31;100.00;100353.00;5162556;28;20042;-56
2022/11/08 08:16:52;;;;;;;2.42;1.25;;;12.30;99.90;;;12.31;100.00;100363.47;5167280;28;20038;-56
2022/11/08 08:19:24;;;;;;;4.47;1.48;;;12.30;99.90;;;12.36;100.00;100361.84;5145413;28;20054;-60
2022/11/08 08:21:56;;;;;;;2.78;1.30;;;12.40;99.90;;;12.43;100.00;100364.59;5146996;28;20454;-57
2022/11/08 08:24:28;;;;;;;3.28;1.35;;;12.40;99.90;;;12.51;100.00;100356.91;5146172;28;20043;-60
2022/11/08 08:27:01;;;;;;;2.65;1.30;;;12.50;99.90;;;12.64;100.00;100348.47;5153045;28;20529;-57
2022/11/08 08:29:33;;;;;;;2.83;1.08;;;12.60;99.90;;;12.76;100.00;100351.31;5166829;28;20663;-56
2022/11/08 08:32:06;;;;;;;3.97;1.25;;;12.80;99.90;;;12.72;100.00;100357.34;5153629;28;20043;-57
2022/11/08 08:34:38;;;;;;;3.10;1.00;;;12.80;99.90;;;12.75;100.00;100353.91;5164778;28;20137;-55
2022/11/08 08:37:14;;;;;;;6.50;1.70;;;12.80;99.90;;;12.76;100.00;100363.50;5147142;28;20038;-55
2022/11/08 08:39:46;;;;;;;5.13;1.95;;;12.80;99.90;;;12.79;100.00;100357.47;5164345;28;20054;-67
2022/11/08 08:42:18;;;;;;;35.92;14.55;;;12.80;99.90;;;12.80;100.00;100362.72;5150272;28;20134;-57
2022/11/08 08:44:50;;;;;;;3.67;1.55;;;12.80;99.90;;;12.81;100.00;100355.75;5151253;28;20054;-58
2022/11/08 08:47:23;;;;;;;7.43;2.33;;;12.80;99.90;;;12.81;100.00;100361.00;5162984;28;20042;-58
2022/11/08 08:49:55;;;;;;;3.65;2.20;;;12.80;99.90;;;12.91;100.00;100348.13;5158220;28;20048;-57
2022/11/08 08:52:27;;;;;;;3.22;1.52;;;12.90;99.90;;;13.11;100.00;100355.44;5163490;28;20053;-57
2022/11/08 08:54:59;;;;;;;3.03;1.88;;;13.00;99.90;;;13.28;100.00;100360.13;5165822;28;20107;-59
2022/11/08 08:57:32;;;;;;;2.17;1.45;;;13.10;99.90;;;13.46;100.00;100351.69;5165903;28;20042;-58
2022/11/08 09:00:06;;;;;;;2.97;1.30;;;13.30;99.90;;;13.70;100.00;100359.06;5165361;28;20104;-58
2022/11/08 09:02:40;;;;;;;2.80;1.10;;;13.50;99.90;;;13.85;100.00;100364.53;5165796;28;20050;-56
2022/11/08 09:05:13;;;;;;;2.33;1.25;;;13.60;99.90;;;14.11;100.00;100353.53;5165685;28;20511;-56
2022/11/08 09:07:45;;;;;;;2.90;1.23;;;13.80;99.90;;;14.28;100.00;100346.78;5165163;28;20057;-58
2022/11/08 09:10:17;;;;;;;4.80;1.45;;;14.00;99.90;;;14.44;100.00;100349.59;5165762;28;20039;-57
2022/11/08 09:12:50;;;;;;;3.20;1.25;;;14.20;99.90;;;14.61;100.00;100353.31;5151337;28;20049;-59
2022/11/08 09:15:22;;;;;;;2.00;1.10;;;14.30;99.90;;;14.70;100.00;100350.78;5162110;28;20046;-57
2022/11/08 09:17:56;;;;;;;1.08;0.95;;;14.40;99.90;;;14.64;100.00;100343.72;5162940;28;20060;-58
2022/11/08 09:20:28;;;;;;;3.25;1.08;;;14.40;99.90;;;14.57;100.00;100346.28;5163281;28;20046;-60
2022/11/08 09:23:01;;;;;;;3.42;1.17;;;14.40;99.90;;;14.49;100.00;100350.56;5152328;28;20054;-58
2022/11/08 09:25:33;;;;;;;2.15;1.15;;;14.30;99.90;;;14.44;100.00;100345.22;5162990;28;20042;-57
2022/11/08 09:28:06;;;;;;;2.80;1.20;;;14.30;99.90;;;14.40;100.00;100343.41;5148285;28;20042;-58
2022/11/08 09:30:38;;;;;;;2.30;1.20;;;14.20;99.90;;;14.32;100.00;100335.44;5154792;28;20043;-57
2022/11/08 09:33:12;;;;;;;4.53;1.10;;;14.20;99.90;;;14.24;100.00;100331.88;5165640;28;20046;-57
2022/11/08 09:35:45;;;;;;;3.58;1.63;;;14.10;99.90;;;14.24;100.00;100344.97;5153362;28;20395;-57
2022/11/08 09:38:17;;;;;;;2.60;1.10;;;14.10;99.90;;;14.27;100.00;100351.97;5154068;28;20052;-59
2022/11/08 09:41:15;;;;;;;3.28;1.15;;;14.10;99.90;;;14.31;100.00;100353.78;5164949;28;20046;-57
2022/11/08 09:44:05;;;;;;;2.08;1.17;;;14.10;99.90;;;14.35;100.00;100372.22;5165565;28;20042;-57
2022/11/08 09:46:44;;;;;;;1.67;1.00;;;14.20;99.90;;;14.35;100.00;100372.22;5164138;28;20049;-60
2022/11/08 09:49:24;;;;;;;3.25;1.27;;;14.20;99.90;;;14.33;100.00;100371.28;5164827;28;20035;-57
2022/11/08 09:51:58;;;;;;;2.22;1.20;;;14.20;99.90;;;14.35;100.00;100372.22;5165180;28;20050;-57
2022/11/08 09:54:37;;;;;;;1.98;1.27;;;14.20;99.90;;;14.36;99.78;100367.84;5164916;28;20511;-57
2022/11/08 09:57:16;;;;;;;2.25;1.10;;;14.20;99.90;;;14.34;98.63;100359.97;5165051;28;20043;-55
2022/11/08 09:59:53;;;;;;;2.55;1.23;;;14.20;99.90;;;14.32;97.84;100350.31;5148963;28;20046;-57
2022/11/08 10:02:26;;;;;;;1.08;0.93;;;14.10;99.90;;;14.32;97.19;100355.53;5144347;28;20496;-57
2022/11/08 10:05:03;;;;;;;3.30;1.20;;;14.10;99.90;;;14.30;100.00;100352.03;5145775;28;20139;-59
2022/11/08 10:07:46;;;;;;;2.00;1.13;;;14.10;99.90;;;14.39;100.00;100357.38;5164532;28;20403;-58
2022/11/08 10:10:37;;;;;;;1.60;1.00;;;14.30;99.90;;;14.34;96.81;100354.72;5164327;28;20054;-59
2022/11/08 10:13:21;;;;;;;1.10;0.90;;;14.30;99.90;;;14.33;97.29;100347.69;5164872;28;20640;-58
2022/11/08 10:16:01;;;;;;;2.47;1.10;;;14.20;99.90;;;14.27;97.01;100347.63;5165050;28;20056;-58
2022/11/08 10:19:20;;;;;;;2.30;1.30;;;14.20;99.90;;;14.20;96.31;100335.28;5164667;28;20069;-56
2022/11/08 10:21:57;;;;;;;;;;;14.10;99.90;;;14.23;96.44;100334.47;5154713;28;20060;-57
2022/11/08 10:24:35;;;;;;;3.90;1.73;;;14.10;99.90;;;14.25;96.62;100337.97;5164937;28;20399;-56
2022/11/08 10:27:16;;;;;;;4.03;2.13;;;14.10;99.90;;;14.19;97.51;100323.06;5164541;28;20035;-57
2022/11/08 10:29:58;;;;;;;3.95;1.70;;;14.10;99.90;;;14.24;97.67;100326.63;5163837;28;20048;-56
2022/11/08 10:32:31;;;;;;;2.95;1.30;;;14.10;99.90;;;14.23;97.63;100324.88;5164466;28;20503;-58
2022/11/08 10:35:17;;;;;;;2.20;1.25;;;14.10;99.90;;;14.20;97.99;100309.06;5164100;28;20402;-58
2022/11/08 10:37:53;;;;;;;2.15;1.27;;;14.10;99.90;;;14.19;98.37;100315.19;5138499;28;20559;-59
2022/11/08 10:40:37;;;;;;;4.47;1.70;;;14.00;99.90;;;14.17;98.28;100314.28;5144660;28;20046;-56
2022/11/08 10:43:14;;;;;;;5.50;1.48;;;14.00;99.90;;;14.13;98.12;100310.75;5144548;28;20423;-60
2022/11/08 10:45:47;;;;;;;2.97;1.48;;;14.00;99.90;;;14.14;98.58;100309.00;5144265;28;20043;-58
2022/11/08 10:48:19;;;;;;;4.43;1.33;;;14.00;99.90;;;14.12;98.40;100303.75;5143828;28;20047;-57
2022/11/08 10:50:54;;;;;;;4.32;1.40;;;14.00;99.90;;;14.09;98.71;100295.88;5144536;28;20046;-57
2022/11/08 10:53:31;;;;;;;4.32;1.40;;;14.00;99.90;;;14.08;98.64;100303.69;5144693;28;20039;-58
2022/11/08 10:56:05;;;;;;;4.57;1.50;;;14.00;99.90;;;14.07;98.99;100309.78;5139699;23;20052;-56